• Join FlightAware (Why Join?)
  • Login
  • US Flag 
05:50AM EST


 

Airport Tracker/Info


-or-


 

Live Flight TrackerFlight Track Log ✈ JBU984 ✈ 03-Apr-2014 ✈ KRDU - KBOS

Flight Track Log - Related Links

Times and Time Zones

All times are in EDT time to prevent confusion due to time zone crossing. See the JBU984 flight status page for this flight to view local times or setup timezone preferences in your user account.

Time Position Orientation Groundspeed Altitude Reporting Facility
EDT Latitude Longitude Course Direction KTS MPH feet Rate Location/Type
05:02PM 35.8686 -78.8114 201° Southwest 160 184 1,200  Level Washington Center
05:03PM 35.8433 -78.8231 201° Southwest 165 190 2,300 2,289 Climbing Washington Center
05:04PM 35.7867 -78.8386 193° South 234 269 4,900 2,412 Climbing Washington Center
05:05PM 35.7714 -78.7792 108° East 297 342 6,400 2,500 Climbing Washington Center
05:05PM 35.7786 -78.7461 75° East 324 373 7,400 2,656 Climbing Washington Center
05:06PM 35.8053 -78.6781 64° Northeast 334 384 9,100 2,754 Climbing Washington Center
05:06PM 35.8147 -78.6400 73° East 348 400 10,200 1,900 Climbing Washington Center
05:07PM 35.8417 -78.5669 66° East 352 405 11,000 1,080 Climbing Washington Center
05:08PM 35.8803 -78.4375 70° East 371 427 12,000 1,815 Climbing Washington Center
05:09PM 35.9142 -78.3208 70° East 395 455 14,600 2,628 Climbing Washington Center
05:10PM 35.9322 -78.1650 82° East 407 468 17,300 2,400 Climbing Washington Center
05:11PM 35.9500 -78.0217 81° East 413 475 19,400 1,835 Climbing Washington Center
05:12PM 35.9608 -77.8914 84° East 418 481 21,000 1,815 Climbing Washington Center
05:13PM 35.9803 -77.7431 81° East 429 494 23,000 1,815 Climbing Washington Center
05:14PM 36.0575 -77.6269 51° Northeast 414 476 24,600 1,537 Climbing Washington Center
05:15PM 36.1569 -77.5369 36° Northeast 420 483 26,100 1,438 Climbing Washington Center
05:16PM 36.2608 -77.4414 37° Northeast 432 497 27,500 1,289 Climbing Washington Center
05:17PM 36.3622 -77.3433 38° Northeast 450 518 28,700 1,169 Climbing Washington Center
05:18PM 36.4658 -77.2475 37° Northeast 463 533 29,800 1,412 Climbing Washington Center
05:19PM 36.5672 -77.1539 37° Northeast 468 539 31,500 1,339 Climbing Washington Center
05:20PM 36.6686 -77.0550 38° Northeast 462 532 32,500 756 Climbing Washington Center
05:21PM 36.7742 -76.9611 35° Northeast 462 532 33,000 250 Climbing Washington Center
05:22PM 36.8817 -76.8642 36° Northeast 467 537 33,000 492 Level Washington Center
05:23PM 36.9847 -76.7672 37° Northeast 467 537 34,000 1,041 Climbing Washington Center
05:24PM 37.0900 -76.6725 36° Northeast 462 532 35,100 1,426 Climbing Washington Center
05:25PM 37.2014 -76.5750 35° Northeast 451 519 36,900 958 Climbing Washington Center
05:26PM 37.2981 -76.4794 38° Northeast 446 513 37,000 51 Climbing Washington Center
05:27PM 37.3947 -76.3917 36° Northeast 441 507 37,000  Level Washington Center
05:28PM 37.4933 -76.3039 35° Northeast 435 501 37,000  Level Washington Center
05:29PM 37.5917 -76.2131 36° Northeast 430 495 37,000 -101 Level Washington Center
05:30PM 37.6922 -76.1297 33° Northeast 430 495 36,800 -738 Descending Washington Center
05:31PM 37.7886 -76.0333 38° Northeast 430 495 35,500 -893 Descending Washington Center
05:32PM 37.8892 -75.9339 38° Northeast 441 507 35,000 -254 Descending Washington Center
05:33PM 37.9936 -75.8394 35° Northeast 447 514 35,000  Level Washington Center
05:34PM 38.0981 -75.7500 34° Northeast 452 520 35,000  Level Washington Center
05:36PM 38.3169 -75.5892 30° Northeast 452 520 35,000  Level Washington Center
05:37PM 38.4211 -75.5042 33° Northeast 447 514 35,000  Level Washington Center
05:38PM 38.5294 -75.4297 28° Northeast 442 509 35,000  Level Washington Center
05:39PM 38.6358 -75.3444 32° Northeast 442 509 35,000  Level Washington Center
05:40PM 38.7439 -75.2617 31° Northeast 442 509 35,000  Level Washington Center
05:41PM 38.8500 -75.1811 31° Northeast 442 509 35,000  Level Washington Center
05:42PM 38.9581 -75.0978 31° Northeast 442 509 35,000  Level Washington Center
05:43PM 39.0639 -75.0142 32° Northeast 442 509 35,000  Level Washington Center
05:44PM 39.1700 -74.9303 31° Northeast 442 509 35,000  Level Washington Center
05:45PM 39.2758 -74.8542 29° Northeast 442 509 35,000  Level Washington Center
05:46PM 39.3794 -74.7700 32° Northeast 437 503 35,000  Level Washington Center
05:48PM 39.6139 -74.5894 31° Northeast 440 506 35,000  Level New York Center
05:49PM 39.7169 -74.5033 33° Northeast 440 506 35,000  Level New York Center
05:50PM 39.8239 -74.4144 33° Northeast 440 506 35,000  Level New York Center
05:51PM 39.9247 -74.3222 35° Northeast 446 513 35,000  Level New York Center
05:52PM 40.0189 -74.2347 35° Northeast 457 526 35,000  Level New York Center
05:53PM 40.1197 -74.1394 36° Northeast 457 526 35,000  Level New York Center
05:54PM 40.2203 -74.0439 36° Northeast 452 520 35,000  Level New York Center
05:55PM 40.3231 -73.9481 35° Northeast 452 520 35,000 -200 Level New York Center
05:56PM 40.4278 -73.8519 35° Northeast 452 520 34,600 -1,097 Descending New York Center
05:58PM 40.6389 -73.6525 36° Northeast 465 535 31,600 -1,810 Descending Boston Center
05:59PM 40.7575 -73.5411 35° Northeast 468 539 28,900 -2,226 Descending Boston Center
06:00PM 40.8622 -73.4344 38° Northeast 470 541 27,000 -1,180 Descending Boston Center
06:01PM 40.9569 -73.2997 47° Northeast 468 539 26,500 -976 Descending Boston Center
06:02PM 41.0425 -73.1703 49° Northeast 468 539 25,000 -1,440 Descending Boston Center
06:03PM 41.1189 -73.0317 54° Northeast 468 539 23,500 -976 Descending Boston Center
06:04PM 41.1786 -72.8825 62° Northeast 466 536 23,000 -248 Descending Boston Center
06:05PM 41.2369 -72.7303 63° Northeast 465 535 23,000  Level Boston Center
06:06PM 41.3058 -72.5475 63° Northeast 465 535 23,000 -290 Level Boston Center
06:07PM 41.3622 -72.3964 64° Northeast 459 528 22,400 -927 Descending Boston Center
06:08PM 41.4200 -72.2444 63° Northeast 459 528 21,100 -1,721 Descending Boston Center
06:09PM 41.4800 -72.0889 63° Northeast 453 521 18,900 -2,115 Descending Boston Center
06:10PM 41.5333 -71.9489 63° Northeast 427 491 16,800 -2,032 Descending Boston Center
06:11PM 41.5869 -71.8036 64° Northeast 411 473 14,700 -1,935 Descending Boston Center
06:12PM 41.6358 -71.6703 64° Northeast 402 463 12,800 -1,835 Descending Boston Center
06:13PM 41.6861 -71.5339 64° Northeast 389 448 11,000 -871 Descending Boston Center
06:14PM 41.7264 -71.4253 64° Northeast 330 380 11,000  Level Boston Center
06:15PM 41.7869 -71.3542 41° Northeast 294 338 11,000 -49 Level Boston Center
06:16PM 41.8636 -71.3211 18° North 272 313 10,900 -738 Descending Boston Center
06:17PM 41.9239 -71.2961 17° North 229 264 9,500 -1,392 Descending Boston Center
06:18PM 41.9808 -71.2678 20° North 222 255 8,000 -1,694 Descending Boston Center
06:19PM 42.0414 -71.2408 18° North 218 251 6,000 -1,450 Descending Boston Center
06:20PM 42.1008 -71.2131 19° North 223 257 5,100 -1,041 Descending Boston Center
06:21PM 42.1600 -71.1853 19° North 225 259 3,900 -1,008 Descending Boston Center
06:23PM 42.2150 -71.1442 29° Northeast 209 241 3,000 -774 Descending Boston Center
06:24PM 42.2558 -71.1094 32° Northeast 177 204 2,300 -744 Descending Boston Center
06:25PM 42.2914 -71.0664 42° Northeast 175 201 1,500 -738 Descending Boston Center
06:26PM 42.3219 -71.0328 39° Northeast 149 171 800 -672 Descending Boston Center
06:27PM 42.3542 -71.0147 22° Northeast 134 154 100 -656 Descending Boston Center